Imbler, Oregon
Current Conditions -  °F | °C
As of 10:55 PM on Sunday 23 Nov 2014 (Local Time) from KLGD Reporting Station
Clear Clear  
Wind Chill: 31°   Ceiling: Unl
Heat Index: 37°   Visibility: 10mi
Dew Point: 28°   Wind: 8mph
Humidity: 70%   Direction: 130°SE
Pressure: 30.24"   Gusts: NA
Location:  45.46°N, 117.96°W
Report Text: KLGD 240655Z AUTO 13007KT 10SM CLR 03/M02 A3024 RMK AO1
Loading
Personal Weather Stations






























Interactive Weather Map New forecast layout! Learn more

10-Day Weather Forecast

Advertisements
Track Severe Weather on mobile